Skip to main content.
Our real time weather data display below is updated continuously via our 24/7 live data feed.
 TIME   TEMPERATURE   WINDSPEED   DIRECTION   HUMIDITY   BAROMETER   RAINFALL 
8:35 24.0°C (75.2°F) 11.1 kmh (6.9 mph) SSE 78% 1010.8hPa (29.85 inHg) 0.0mm (0.00 in.)
7:35 22.0°C (71.6 °F) 9.3 kmh (5.8 mph) S 83% 1010.8hPa (29.85 inHg) 0.0mm (0.00 in.)
6:35 21.0°C (69.8 °F) 7.4 kmh (4.6 mph) SSE 82% 1010.8hPa (29.85 inHg) 0.0mm (0.00 in.)
5:35 21.0°C (69.8 °F) 7.4 kmh (4.6 mph) S 82% 1010.8hPa (29.85 inHg) 0.0mm (0.00 in.)
4:35 21.0°C (69.8 °F) 5.6 kmh (3.5 mph) S 82% 1011.9hPa (29.88 inHg) 0.0mm (0.00 in.)
3:35 21.0°C (69.8 °F) 5.6 kmh (3.5 mph) S 82% 1011.9hPa (29.88 inHg) 0.0mm (0.00 in.)
2:35 21.0°C (69.8 °F) 5.6 kmh (3.5 mph) S 82% 1011.9hPa (29.88 inHg) 0.0mm (0.00 in.)
1:35 22.0°C (71.6 °F) 7.4 kmh (4.6 mph) S 78% 1012.9hPa (29.91 inHg) 0.0mm (0.00 in.)
0:35 22.0°C (71.6 °F) 7.4 kmh (4.6 mph) S 78% 1012.9hPa (29.91 inHg) 0.0mm (0.00 in.)
23:35 22.0°C (71.6 °F) 5.6 kmh (3.5 mph) S 78% 1012.9hPa (29.91 inHg) 0.0mm (0.00 in.)
22:35 22.0°C (71.6 °F) 7.4 kmh (4.6 mph) SSW 78% 1013.9hPa (29.94 inHg) 0.0mm (0.00 in.)
21:35 22.0°C (71.6 °F) 7.4 kmh (4.6 mph) SSW 78% 1013.9hPa (29.94 inHg) 0.0mm (0.00 in.)
20:35 23.0°C (73.4 °F) 7.4 kmh (4.6 mph) SSW 73% 1013.9hPa (29.94 inHg) 0.0mm (0.00 in.)
19:35 23.0°C (73.4 °F) 5.6 kmh (3.5 mph) SSW 68% 1013.9hPa (29.94 inHg) 0.0mm (0.00 in.)
18:35 24.0°C (75.2 °F) 9.3 kmh (5.8 mph) SSW 64% 1013.9hPa (29.94 inHg) 0.0mm (0.00 in.)
17:35 25.0°C (77.0 °F) 13.0 kmh (8.1 mph) SW 61% 1013.9hPa (29.94 inHg) 0.0mm (0.00 in.)
16:35 25.0°C (77.0 °F) 13.0 kmh (8.1 mph) SSW 61% 1013.9hPa (29.94 inHg) 0.0mm (0.00 in.)
15:35 25.0°C (77.0 °F) 14.8 kmh (9.2 mph) SSW 61% 1013.9hPa (29.94 inHg) 0.0mm (0.00 in.)
14:35 25.0°C (77.0 °F) 18.5 kmh (11.5 mph) SSW 61% 1014.9hPa (29.97 inHg) 0.0mm (0.00 in.)
13:35 26.0°C (78.8 °F) 11.1 kmh (6.9 mph) SW 61% 1015.9hPa (30.00 inHg) 0.0mm (0.00 in.)
12:35 26.0°C (78.8 °F) 11.1 kmh (6.9 mph) SW 61% 1015.9hPa (30.00 inHg) 0.0mm (0.00 in.)
11:35 26.0°C (78.8 °F) 7.4 kmh (4.6 mph) N 61% 1015.9hPa (30.00 inHg) 0.0mm (0.00 in.)
10:35 24.0°C (75.2 °F) 9.3 kmh (5.8 mph) N 69% 1016.9hPa (30.03 inHg) 0.0mm (0.00 in.)
9:35 22.0°C (71.6 °F) 7.4 kmh (4.6 mph) NNW 83% 1016.9hPa (30.03 inHg) 0.0mm (0.00 in.)